sensor_id;sensor_type;location;lat;lon;timestamp;P1;durP1;ratioP1;P2;durP2;ratioP2
5460;SDS011;2753;49.196;8.286;2022-10-31T00:01:01;27.97;;;15.00;;
5460;SDS011;2753;49.196;8.286;2022-10-31T00:03:34;28.73;;;13.80;;
5460;SDS011;2753;49.196;8.286;2022-10-31T00:05:59;33.63;;;15.13;;
5460;SDS011;2753;49.196;8.286;2022-10-31T00:08:26;33.70;;;15.27;;
5460;SDS011;2753;49.196;8.286;2022-10-31T00:10:55;27.23;;;12.67;;
5460;SDS011;2753;49.196;8.286;2022-10-31T00:13:20;25.67;;;14.37;;
5460;SDS011;2753;49.196;8.286;2022-10-31T00:15:46;26.90;;;14.03;;
5460;SDS011;2753;49.196;8.286;2022-10-31T00:18:12;24.80;;;13.27;;
5460;SDS011;2753;49.196;8.286;2022-10-31T00:20:38;32.57;;;12.43;;
5460;SDS011;2753;49.196;8.286;2022-10-31T00:23:04;23.13;;;13.60;;
5460;SDS011;2753;49.196;8.286;2022-10-31T00:25:35;20.43;;;12.40;;
5460;SDS011;2753;49.196;8.286;2022-10-31T00:28:04;19.80;;;11.40;;
5460;SDS011;2753;49.196;8.286;2022-10-31T00:30:31;20.20;;;12.63;;
5460;SDS011;2753;49.196;8.286;2022-10-31T00:32:57;17.63;;;11.33;;
5460;SDS011;2753;49.196;8.286;2022-10-31T00:35:23;22.03;;;11.00;;
5460;SDS011;2753;49.196;8.286;2022-10-31T00:37:49;34.23;;;11.77;;
5460;SDS011;2753;49.196;8.286;2022-10-31T00:40:16;16.13;;;9.60;;
5460;SDS011;2753;49.196;8.286;2022-10-31T00:42:42;15.23;;;9.43;;
5460;SDS011;2753;49.196;8.286;2022-10-31T00:45:09;17.93;;;9.33;;
5460;SDS011;2753;49.196;8.286;2022-10-31T00:47:35;18.30;;;9.33;;
5460;SDS011;2753;49.196;8.286;2022-10-31T00:50:02;18.50;;;8.67;;
5460;SDS011;2753;49.196;8.286;2022-10-31T00:52:29;19.90;;;9.70;;
5460;SDS011;2753;49.196;8.286;2022-10-31T00:54:54;15.20;;;8.27;;
5460;SDS011;2753;49.196;8.286;2022-10-31T00:57:20;26.27;;;9.07;;
5460;SDS011;2753;49.196;8.286;2022-10-31T00:59:46;17.03;;;8.83;;
5460;SDS011;2753;49.196;8.286;2022-10-31T01:02:11;14.50;;;7.90;;
5460;SDS011;2753;49.196;8.286;2022-10-31T01:04:37;13.00;;;8.80;;
5460;SDS011;2753;49.196;8.286;2022-10-31T01:07:03;18.00;;;9.07;;
5460;SDS011;2753;49.196;8.286;2022-10-31T01:09:28;19.97;;;9.87;;
5460;SDS011;2753;49.196;8.286;2022-10-31T01:11:54;16.37;;;8.13;;
5460;SDS011;2753;49.196;8.286;2022-10-31T01:14:21;15.60;;;8.97;;
5460;SDS011;2753;49.196;8.286;2022-10-31T01:16:46;18.40;;;9.03;;
5460;SDS011;2753;49.196;8.286;2022-10-31T01:19:12;17.00;;;9.77;;
5460;SDS011;2753;49.196;8.286;2022-10-31T01:21:38;22.87;;;9.37;;
5460;SDS011;2753;49.196;8.286;2022-10-31T01:24:03;12.13;;;9.40;;
5460;SDS011;2753;49.196;8.286;2022-10-31T01:26:30;13.30;;;8.07;;
5460;SDS011;2753;49.196;8.286;2022-10-31T01:28:59;20.37;;;9.40;;
5460;SDS011;2753;49.196;8.286;2022-10-31T01:31:29;21.10;;;9.40;;
5460;SDS011;2753;49.196;8.286;2022-10-31T01:33:57;21.67;;;8.63;;
5460;SDS011;2753;49.196;8.286;2022-10-31T01:36:27;15.37;;;7.97;;
5460;SDS011;2753;49.196;8.286;2022-10-31T01:38:55;19.90;;;7.70;;
5460;SDS011;2753;49.196;8.286;2022-10-31T01:41:25;14.00;;;8.07;;
5460;SDS011;2753;49.196;8.286;2022-10-31T01:43:55;20.60;;;8.30;;
5460;SDS011;2753;49.196;8.286;2022-10-31T01:46:29;11.57;;;7.17;;
5460;SDS011;2753;49.196;8.286;2022-10-31T01:48:57;12.20;;;7.20;;
5460;SDS011;2753;49.196;8.286;2022-10-31T01:51:28;13.00;;;8.20;;
5460;SDS011;2753;49.196;8.286;2022-10-31T01:53:58;21.00;;;8.20;;
5460;SDS011;2753;49.196;8.286;2022-10-31T01:56:27;12.93;;;9.60;;
5460;SDS011;2753;49.196;8.286;2022-10-31T01:58:53;10.43;;;7.63;;
5460;SDS011;2753;49.196;8.286;2022-10-31T02:01:21;22.00;;;9.40;;
5460;SDS011;2753;49.196;8.286;2022-10-31T02:03:56;23.60;;;8.80;;
5460;SDS011;2753;49.196;8.286;2022-10-31T02:06:38;15.20;;;9.07;;
5460;SDS011;2753;49.196;8.286;2022-10-31T02:09:14;11.93;;;6.83;;
5460;SDS011;2753;49.196;8.286;2022-10-31T02:11:41;16.83;;;8.70;;
5460;SDS011;2753;49.196;8.286;2022-10-31T02:14:08;12.13;;;7.60;;
5460;SDS011;2753;49.196;8.286;2022-10-31T02:16:33;16.20;;;8.10;;
5460;SDS011;2753;49.196;8.286;2022-10-31T02:18:59;14.30;;;7.40;;
5460;SDS011;2753;49.196;8.286;2022-10-31T02:21:32;9.83;;;6.80;;
5460;SDS011;2753;49.196;8.286;2022-10-31T02:32:52;19.60;;;8.30;;
5460;SDS011;2753;49.196;8.286;2022-10-31T02:38:29;19.80;;;8.90;;
5460;SDS011;2753;49.196;8.286;2022-10-31T02:41:01;15.47;;;7.70;;
5460;SDS011;2753;49.196;8.286;2022-10-31T02:43:36;14.83;;;7.63;;
5460;SDS011;2753;49.196;8.286;2022-10-31T02:46:14;22.57;;;7.33;;
5460;SDS011;2753;49.196;8.286;2022-10-31T02:48:46;17.33;;;8.53;;
5460;SDS011;2753;49.196;8.286;2022-10-31T02:51:15;15.60;;;7.80;;
5460;SDS011;2753;49.196;8.286;2022-10-31T02:53:42;16.57;;;7.80;;
5460;SDS011;2753;49.196;8.286;2022-10-31T02:58:38;14.83;;;7.80;;
5460;SDS011;2753;49.196;8.286;2022-10-31T03:07:05;25.83;;;11.97;;
5460;SDS011;2753;49.196;8.286;2022-10-31T03:15:30;24.17;;;12.23;;
5460;SDS011;2753;49.196;8.286;2022-10-31T03:23:28;17.87;;;10.10;;
5460;SDS011;2753;49.196;8.286;2022-10-31T03:25:57;17.50;;;10.27;;
5460;SDS011;2753;49.196;8.286;2022-10-31T03:28:31;38.53;;;10.50;;
5460;SDS011;2753;49.196;8.286;2022-10-31T03:31:01;18.80;;;9.57;;
5460;SDS011;2753;49.196;8.286;2022-10-31T03:33:30;14.87;;;7.47;;
5460;SDS011;2753;49.196;8.286;2022-10-31T03:35:59;22.50;;;7.37;;
5460;SDS011;2753;49.196;8.286;2022-10-31T03:38:29;16.73;;;7.87;;
5460;SDS011;2753;49.196;8.286;2022-10-31T03:40:57;14.10;;;7.53;;
5460;SDS011;2753;49.196;8.286;2022-10-31T03:43:28;18.70;;;7.50;;
5460;SDS011;2753;49.196;8.286;2022-10-31T03:45:58;17.57;;;7.90;;
5460;SDS011;2753;49.196;8.286;2022-10-31T03:48:24;11.07;;;7.63;;
5460;SDS011;2753;49.196;8.286;2022-10-31T03:51:07;19.73;;;8.20;;
5460;SDS011;2753;49.196;8.286;2022-10-31T03:53:43;17.93;;;8.20;;
5460;SDS011;2753;49.196;8.286;2022-10-31T03:56:29;15.93;;;8.20;;
5460;SDS011;2753;49.196;8.286;2022-10-31T04:01:40;17.40;;;8.80;;
5460;SDS011;2753;49.196;8.286;2022-10-31T04:04:13;22.10;;;9.10;;
5460;SDS011;2753;49.196;8.286;2022-10-31T04:06:40;17.10;;;8.60;;
5460;SDS011;2753;49.196;8.286;2022-10-31T04:09:08;16.77;;;8.57;;
5460;SDS011;2753;49.196;8.286;2022-10-31T04:11:36;11.93;;;7.67;;
5460;SDS011;2753;49.196;8.286;2022-10-31T04:14:07;17.63;;;8.30;;
5460;SDS011;2753;49.196;8.286;2022-10-31T04:16:34;14.80;;;7.60;;
5460;SDS011;2753;49.196;8.286;2022-10-31T04:18:59;19.77;;;8.20;;
5460;SDS011;2753;49.196;8.286;2022-10-31T04:21:29;13.63;;;7.00;;
5460;SDS011;2753;49.196;8.286;2022-10-31T04:23:56;9.77;;;6.53;;
5460;SDS011;2753;49.196;8.286;2022-10-31T04:26:22;12.60;;;6.60;;
5460;SDS011;2753;49.196;8.286;2022-10-31T04:28:48;12.67;;;6.70;;
5460;SDS011;2753;49.196;8.286;2022-10-31T04:31:14;12.33;;;6.40;;
5460;SDS011;2753;49.196;8.286;2022-10-31T04:33:40;10.37;;;6.53;;
5460;SDS011;2753;49.196;8.286;2022-10-31T04:36:06;8.17;;;5.50;;
5460;SDS011;2753;49.196;8.286;2022-10-31T04:38:32;17.20;;;6.50;;
5460;SDS011;2753;49.196;8.286;2022-10-31T04:40:58;13.67;;;6.40;;
5460;SDS011;2753;49.196;8.286;2022-10-31T04:43:24;6.13;;;4.77;;
5460;SDS011;2753;49.196;8.286;2022-10-31T04:45:50;9.30;;;4.87;;
5460;SDS011;2753;49.196;8.286;2022-10-31T04:48:15;12.13;;;5.27;;
5460;SDS011;2753;49.196;8.286;2022-10-31T04:50:41;8.67;;;4.30;;
5460;SDS011;2753;49.196;8.286;2022-10-31T04:53:07;12.67;;;5.00;;
5460;SDS011;2753;49.196;8.286;2022-10-31T04:55:33;8.83;;;6.70;;
5460;SDS011;2753;49.196;8.286;2022-10-31T04:58:00;9.13;;;4.37;;
5460;SDS011;2753;49.196;8.286;2022-10-31T05:00:25;13.37;;;5.00;;
5460;SDS011;2753;49.196;8.286;2022-10-31T05:02:52;17.63;;;7.30;;
5460;SDS011;2753;49.196;8.286;2022-10-31T05:05:21;10.20;;;6.20;;
5460;SDS011;2753;49.196;8.286;2022-10-31T05:07:49;8.90;;;5.27;;
5460;SDS011;2753;49.196;8.286;2022-10-31T05:10:16;11.23;;;6.10;;
5460;SDS011;2753;49.196;8.286;2022-10-31T05:12:50;16.47;;;6.40;;
5460;SDS011;2753;49.196;8.286;2022-10-31T05:15:18;18.77;;;7.00;;
5460;SDS011;2753;49.196;8.286;2022-10-31T05:17:45;36.10;;;8.13;;
5460;SDS011;2753;49.196;8.286;2022-10-31T05:20:11;20.33;;;8.00;;
5460;SDS011;2753;49.196;8.286;2022-10-31T05:22:42;50.03;;;13.60;;
5460;SDS011;2753;49.196;8.286;2022-10-31T05:25:09;45.50;;;14.20;;
5460;SDS011;2753;49.196;8.286;2022-10-31T05:27:38;41.07;;;13.30;;
5460;SDS011;2753;49.196;8.286;2022-10-31T05:30:05;63.83;;;12.50;;
5460;SDS011;2753;49.196;8.286;2022-10-31T05:32:36;38.43;;;6.47;;
5460;SDS011;2753;49.196;8.286;2022-10-31T05:35:03;11.07;;;6.53;;
5460;SDS011;2753;49.196;8.286;2022-10-31T05:37:29;16.73;;;5.90;;
5460;SDS011;2753;49.196;8.286;2022-10-31T05:39:54;12.90;;;7.80;;
5460;SDS011;2753;49.196;8.286;2022-10-31T05:42:20;15.83;;;5.70;;
5460;SDS011;2753;49.196;8.286;2022-10-31T05:44:46;9.23;;;5.57;;
5460;SDS011;2753;49.196;8.286;2022-10-31T05:47:11;10.43;;;5.80;;
5460;SDS011;2753;49.196;8.286;2022-10-31T05:49:37;7.00;;;5.47;;
5460;SDS011;2753;49.196;8.286;2022-10-31T05:52:03;9.77;;;7.57;;
5460;SDS011;2753;49.196;8.286;2022-10-31T05:54:28;12.67;;;6.67;;
5460;SDS011;2753;49.196;8.286;2022-10-31T05:56:54;5.43;;;4.93;;
5460;SDS011;2753;49.196;8.286;2022-10-31T05:59:20;7.87;;;5.60;;
5460;SDS011;2753;49.196;8.286;2022-10-31T06:01:46;16.70;;;6.37;;
5460;SDS011;2753;49.196;8.286;2022-10-31T06:04:11;15.43;;;5.83;;
5460;SDS011;2753;49.196;8.286;2022-10-31T06:06:37;6.83;;;5.63;;
5460;SDS011;2753;49.196;8.286;2022-10-31T06:09:03;9.57;;;5.43;;
5460;SDS011;2753;49.196;8.286;2022-10-31T06:11:28;6.03;;;5.17;;
5460;SDS011;2753;49.196;8.286;2022-10-31T06:13:54;28.33;;;5.73;;
5460;SDS011;2753;49.196;8.286;2022-10-31T06:16:20;34.70;;;5.40;;
5460;SDS011;2753;49.196;8.286;2022-10-31T06:18:46;20.13;;;5.80;;
5460;SDS011;2753;49.196;8.286;2022-10-31T06:21:12;12.40;;;5.97;;
5460;SDS011;2753;49.196;8.286;2022-10-31T06:23:37;22.73;;;6.00;;
5460;SDS011;2753;49.196;8.286;2022-10-31T06:26:03;29.33;;;5.77;;
5460;SDS011;2753;49.196;8.286;2022-10-31T06:28:29;19.70;;;5.70;;
5460;SDS011;2753;49.196;8.286;2022-10-31T06:30:55;14.30;;;6.37;;
5460;SDS011;2753;49.196;8.286;2022-10-31T06:33:20;7.57;;;4.67;;
5460;SDS011;2753;49.196;8.286;2022-10-31T06:35:46;7.43;;;5.27;;
5460;SDS011;2753;49.196;8.286;2022-10-31T06:38:12;11.13;;;6.33;;
5460;SDS011;2753;49.196;8.286;2022-10-31T06:40:39;14.60;;;5.20;;
5460;SDS011;2753;49.196;8.286;2022-10-31T06:43:05;6.77;;;5.50;;
5460;SDS011;2753;49.196;8.286;2022-10-31T06:45:30;7.93;;;5.83;;
5460;SDS011;2753;49.196;8.286;2022-10-31T06:47:56;8.90;;;6.10;;
5460;SDS011;2753;49.196;8.286;2022-10-31T06:50:22;7.07;;;5.53;;
5460;SDS011;2753;49.196;8.286;2022-10-31T06:52:52;7.40;;;5.00;;
5460;SDS011;2753;49.196;8.286;2022-10-31T06:55:19;5.97;;;4.90;;
5460;SDS011;2753;49.196;8.286;2022-10-31T06:57:51;7.50;;;5.50;;
5460;SDS011;2753;49.196;8.286;2022-10-31T07:00:16;9.87;;;6.23;;
5460;SDS011;2753;49.196;8.286;2022-10-31T07:02:42;8.63;;;5.80;;
5460;SDS011;2753;49.196;8.286;2022-10-31T07:05:08;12.73;;;6.70;;
5460;SDS011;2753;49.196;8.286;2022-10-31T07:07:34;14.20;;;6.73;;
5460;SDS011;2753;49.196;8.286;2022-10-31T07:09:59;9.83;;;8.07;;
5460;SDS011;2753;49.196;8.286;2022-10-31T07:12:25;7.10;;;6.40;;
5460;SDS011;2753;49.196;8.286;2022-10-31T07:18:13;9.23;;;6.07;;
5460;SDS011;2753;49.196;8.286;2022-10-31T07:20:38;7.80;;;6.47;;
5460;SDS011;2753;49.196;8.286;2022-10-31T07:23:04;10.63;;;6.73;;
5460;SDS011;2753;49.196;8.286;2022-10-31T07:25:30;14.63;;;5.53;;
5460;SDS011;2753;49.196;8.286;2022-10-31T07:27:56;12.27;;;5.70;;
5460;SDS011;2753;49.196;8.286;2022-10-31T07:30:21;9.63;;;6.07;;
5460;SDS011;2753;49.196;8.286;2022-10-31T07:32:48;8.87;;;6.37;;
5460;SDS011;2753;49.196;8.286;2022-10-31T07:38:21;16.10;;;7.53;;
5460;SDS011;2753;49.196;8.286;2022-10-31T07:40:52;35.60;;;7.83;;
5460;SDS011;2753;49.196;8.286;2022-10-31T07:43:18;15.60;;;7.63;;
5460;SDS011;2753;49.196;8.286;2022-10-31T07:45:48;13.87;;;6.70;;
5460;SDS011;2753;49.196;8.286;2022-10-31T07:58:38;11.37;;;6.00;;
5460;SDS011;2753;49.196;8.286;2022-10-31T08:01:04;15.87;;;5.90;;
5460;SDS011;2753;49.196;8.286;2022-10-31T08:03:30;8.97;;;5.90;;
5460;SDS011;2753;49.196;8.286;2022-10-31T08:05:56;9.77;;;6.30;;
5460;SDS011;2753;49.196;8.286;2022-10-31T08:08:23;16.50;;;5.97;;
5460;SDS011;2753;49.196;8.286;2022-10-31T08:10:49;19.07;;;5.90;;
5460;SDS011;2753;49.196;8.286;2022-10-31T08:13:15;8.07;;;5.80;;
5460;SDS011;2753;49.196;8.286;2022-10-31T08:15:41;12.87;;;6.30;;
5460;SDS011;2753;49.196;8.286;2022-10-31T08:18:11;15.23;;;6.87;;
5460;SDS011;2753;49.196;8.286;2022-10-31T08:20:38;11.40;;;6.77;;
5460;SDS011;2753;49.196;8.286;2022-10-31T08:23:04;15.37;;;6.10;;
5460;SDS011;2753;49.196;8.286;2022-10-31T08:25:31;15.70;;;6.60;;
5460;SDS011;2753;49.196;8.286;2022-10-31T08:27:59;12.53;;;6.00;;
5460;SDS011;2753;49.196;8.286;2022-10-31T08:30:26;23.27;;;6.77;;
5460;SDS011;2753;49.196;8.286;2022-10-31T08:32:57;8.13;;;5.80;;
5460;SDS011;2753;49.196;8.286;2022-10-31T08:35:36;8.60;;;6.00;;
5460;SDS011;2753;49.196;8.286;2022-10-31T08:38:03;14.90;;;6.87;;
5460;SDS011;2753;49.196;8.286;2022-10-31T08:40:29;20.60;;;7.30;;
5460;SDS011;2753;49.196;8.286;2022-10-31T08:43:00;14.93;;;7.77;;
5460;SDS011;2753;49.196;8.286;2022-10-31T08:45:31;16.03;;;7.00;;
5460;SDS011;2753;49.196;8.286;2022-10-31T08:47:59;28.93;;;7.50;;
5460;SDS011;2753;49.196;8.286;2022-10-31T08:50:27;18.63;;;6.73;;
5460;SDS011;2753;49.196;8.286;2022-10-31T08:52:53;15.23;;;7.27;;
5460;SDS011;2753;49.196;8.286;2022-10-31T08:55:24;19.07;;;7.47;;
5460;SDS011;2753;49.196;8.286;2022-10-31T08:57:54;19.23;;;7.20;;
5460;SDS011;2753;49.196;8.286;2022-10-31T09:00:21;10.70;;;7.13;;
5460;SDS011;2753;49.196;8.286;2022-10-31T09:02:47;22.33;;;8.30;;
5460;SDS011;2753;49.196;8.286;2022-10-31T09:05:13;15.47;;;6.83;;
5460;SDS011;2753;49.196;8.286;2022-10-31T09:07:39;17.80;;;8.00;;
5460;SDS011;2753;49.196;8.286;2022-10-31T09:10:04;13.03;;;7.90;;
5460;SDS011;2753;49.196;8.286;2022-10-31T09:12:30;16.37;;;7.30;;
5460;SDS011;2753;49.196;8.286;2022-10-31T09:14:57;21.63;;;8.13;;
5460;SDS011;2753;49.196;8.286;2022-10-31T09:17:23;16.63;;;7.90;;
5460;SDS011;2753;49.196;8.286;2022-10-31T09:19:49;20.33;;;8.37;;
5460;SDS011;2753;49.196;8.286;2022-10-31T09:22:14;12.60;;;7.83;;
5460;SDS011;2753;49.196;8.286;2022-10-31T09:24:40;16.30;;;8.27;;
5460;SDS011;2753;49.196;8.286;2022-10-31T09:27:06;16.30;;;7.93;;
5460;SDS011;2753;49.196;8.286;2022-10-31T09:29:34;21.60;;;8.07;;
5460;SDS011;2753;49.196;8.286;2022-10-31T09:31:59;14.73;;;8.00;;
5460;SDS011;2753;49.196;8.286;2022-10-31T09:34:25;16.60;;;7.73;;
5460;SDS011;2753;49.196;8.286;2022-10-31T09:36:52;20.03;;;8.90;;
5460;SDS011;2753;49.196;8.286;2022-10-31T09:39:18;18.93;;;8.43;;
5460;SDS011;2753;49.196;8.286;2022-10-31T09:41:48;16.53;;;8.43;;
5460;SDS011;2753;49.196;8.286;2022-10-31T09:50:24;18.73;;;9.37;;
5460;SDS011;2753;49.196;8.286;2022-10-31T09:53:56;19.13;;;9.87;;
5460;SDS011;2753;49.196;8.286;2022-10-31T09:55:59;22.30;;;9.57;;
5460;SDS011;2753;49.196;8.286;2022-10-31T09:58:29;14.77;;;8.17;;
5460;SDS011;2753;49.196;8.286;2022-10-31T10:01:03;23.13;;;8.33;;
5460;SDS011;2753;49.196;8.286;2022-10-31T10:03:41;22.10;;;9.60;;
5460;SDS011;2753;49.196;8.286;2022-10-31T10:06:12;19.13;;;8.73;;
5460;SDS011;2753;49.196;8.286;2022-10-31T10:08:49;21.07;;;9.37;;
5460;SDS011;2753;49.196;8.286;2022-10-31T10:14:35;20.03;;;7.70;;
5460;SDS011;2753;49.196;8.286;2022-10-31T10:27:40;12.57;;;8.80;;
5460;SDS011;2753;49.196;8.286;2022-10-31T10:30:34;18.73;;;8.20;;
5460;SDS011;2753;49.196;8.286;2022-10-31T10:33:08;18.37;;;8.13;;
5460;SDS011;2753;49.196;8.286;2022-10-31T10:36:20;18.23;;;9.50;;
5460;SDS011;2753;49.196;8.286;2022-10-31T10:38:37;13.77;;;8.17;;
5460;SDS011;2753;49.196;8.286;2022-10-31T10:41:22;14.03;;;8.20;;
5460;SDS011;2753;49.196;8.286;2022-10-31T10:43:52;17.87;;;7.43;;
5460;SDS011;2753;49.196;8.286;2022-10-31T10:46:29;12.40;;;7.63;;
5460;SDS011;2753;49.196;8.286;2022-10-31T10:49:39;16.20;;;7.97;;
5460;SDS011;2753;49.196;8.286;2022-10-31T11:57:01;29.47;;;10.50;;
5460;SDS011;2753;49.196;8.286;2022-10-31T11:59:33;17.90;;;10.73;;
5460;SDS011;2753;49.196;8.286;2022-10-31T12:01:59;19.87;;;9.80;;
5460;SDS011;2753;49.196;8.286;2022-10-31T12:04:33;27.00;;;10.80;;
5460;SDS011;2753;49.196;8.286;2022-10-31T12:07:08;22.20;;;10.40;;
5460;SDS011;2753;49.196;8.286;2022-10-31T12:09:34;20.90;;;10.37;;
5460;SDS011;2753;49.196;8.286;2022-10-31T12:15:00;19.73;;;9.87;;
5460;SDS011;2753;49.196;8.286;2022-10-31T12:23:45;22.57;;;9.87;;
5460;SDS011;2753;49.196;8.286;2022-10-31T12:29:15;36.87;;;11.27;;
5460;SDS011;2753;49.196;8.286;2022-10-31T12:40:23;32.33;;;10.70;;
5460;SDS011;2753;49.196;8.286;2022-10-31T12:48:24;19.50;;;10.47;;
5460;SDS011;2753;49.196;8.286;2022-10-31T12:54:17;21.90;;;9.43;;
5460;SDS011;2753;49.196;8.286;2022-10-31T12:56:53;26.77;;;10.70;;
5460;SDS011;2753;49.196;8.286;2022-10-31T13:04:53;15.97;;;9.77;;
5460;SDS011;2753;49.196;8.286;2022-10-31T13:12:51;22.40;;;9.53;;
5460;SDS011;2753;49.196;8.286;2022-10-31T13:15:30;19.73;;;10.27;;
5460;SDS011;2753;49.196;8.286;2022-10-31T13:18:09;23.30;;;9.90;;
5460;SDS011;2753;49.196;8.286;2022-10-31T13:20:45;16.60;;;10.00;;
5460;SDS011;2753;49.196;8.286;2022-10-31T13:23:27;15.20;;;10.47;;
5460;SDS011;2753;49.196;8.286;2022-10-31T13:26:14;22.30;;;9.87;;
5460;SDS011;2753;49.196;8.286;2022-10-31T13:28:48;20.87;;;9.60;;
5460;SDS011;2753;49.196;8.286;2022-10-31T13:31:21;25.73;;;12.03;;
5460;SDS011;2753;49.196;8.286;2022-10-31T13:33:51;27.17;;;13.83;;
5460;SDS011;2753;49.196;8.286;2022-10-31T13:44:26;22.03;;;12.23;;
5460;SDS011;2753;49.196;8.286;2022-10-31T13:46:54;23.13;;;12.23;;
5460;SDS011;2753;49.196;8.286;2022-10-31T13:57:20;26.73;;;10.40;;
5460;SDS011;2753;49.196;8.286;2022-10-31T14:02:49;18.60;;;9.50;;
5460;SDS011;2753;49.196;8.286;2022-10-31T14:05:31;19.03;;;9.40;;
5460;SDS011;2753;49.196;8.286;2022-10-31T14:07:59;20.30;;;9.83;;
5460;SDS011;2753;49.196;8.286;2022-10-31T14:13:07;22.03;;;9.73;;
5460;SDS011;2753;49.196;8.286;2022-10-31T14:15:42;26.40;;;11.60;;
5460;SDS011;2753;49.196;8.286;2022-10-31T14:18:25;22.33;;;11.20;;
5460;SDS011;2753;49.196;8.286;2022-10-31T14:21:40;20.70;;;9.93;;
5460;SDS011;2753;49.196;8.286;2022-10-31T14:26:57;21.97;;;10.90;;
5460;SDS011;2753;49.196;8.286;2022-10-31T14:29:29;20.77;;;10.30;;
5460;SDS011;2753;49.196;8.286;2022-10-31T14:32:18;17.63;;;10.20;;
5460;SDS011;2753;49.196;8.286;2022-10-31T14:45:59;22.17;;;11.00;;
5460;SDS011;2753;49.196;8.286;2022-10-31T14:48:39;15.30;;;9.37;;
5460;SDS011;2753;49.196;8.286;2022-10-31T14:51:31;24.27;;;8.53;;
5460;SDS011;2753;49.196;8.286;2022-10-31T14:53:59;37.93;;;9.33;;
5460;SDS011;2753;49.196;8.286;2022-10-31T14:56:26;15.97;;;9.10;;
5460;SDS011;2753;49.196;8.286;2022-10-31T14:58:59;19.50;;;10.30;;
5460;SDS011;2753;49.196;8.286;2022-10-31T15:01:28;24.47;;;9.80;;
5460;SDS011;2753;49.196;8.286;2022-10-31T15:04:04;21.47;;;9.20;;
5460;SDS011;2753;49.196;8.286;2022-10-31T15:07:08;18.70;;;9.40;;
5460;SDS011;2753;49.196;8.286;2022-10-31T15:09:55;20.53;;;8.87;;
5460;SDS011;2753;49.196;8.286;2022-10-31T15:12:26;18.27;;;9.13;;
5460;SDS011;2753;49.196;8.286;2022-10-31T15:14:54;30.03;;;10.40;;
5460;SDS011;2753;49.196;8.286;2022-10-31T15:17:21;28.50;;;9.00;;
5460;SDS011;2753;49.196;8.286;2022-10-31T15:19:48;18.93;;;8.47;;
5460;SDS011;2753;49.196;8.286;2022-10-31T15:22:19;19.70;;;8.40;;
5460;SDS011;2753;49.196;8.286;2022-10-31T15:24:48;19.47;;;8.10;;
5460;SDS011;2753;49.196;8.286;2022-10-31T15:27:21;19.60;;;7.97;;
5460;SDS011;2753;49.196;8.286;2022-10-31T15:29:54;17.13;;;9.03;;
5460;SDS011;2753;49.196;8.286;2022-10-31T15:32:22;25.97;;;9.93;;
5460;SDS011;2753;49.196;8.286;2022-10-31T15:34:52;23.90;;;12.83;;
5460;SDS011;2753;49.196;8.286;2022-10-31T15:37:20;29.80;;;10.60;;
5460;SDS011;2753;49.196;8.286;2022-10-31T15:39:48;22.40;;;10.27;;
5460;SDS011;2753;49.196;8.286;2022-10-31T15:42:21;17.13;;;8.30;;
5460;SDS011;2753;49.196;8.286;2022-10-31T15:47:28;26.07;;;8.77;;
5460;SDS011;2753;49.196;8.286;2022-10-31T15:49:57;18.27;;;8.97;;
5460;SDS011;2753;49.196;8.286;2022-10-31T15:52:28;19.90;;;10.00;;
5460;SDS011;2753;49.196;8.286;2022-10-31T15:54:55;19.03;;;10.83;;
5460;SDS011;2753;49.196;8.286;2022-10-31T15:57:25;29.23;;;10.10;;
5460;SDS011;2753;49.196;8.286;2022-10-31T15:59:51;20.70;;;9.07;;
5460;SDS011;2753;49.196;8.286;2022-10-31T16:02:19;26.43;;;10.27;;
5460;SDS011;2753;49.196;8.286;2022-10-31T16:04:48;20.63;;;9.50;;
5460;SDS011;2753;49.196;8.286;2022-10-31T16:07:22;25.70;;;10.20;;
5460;SDS011;2753;49.196;8.286;2022-10-31T16:12:37;29.53;;;16.07;;
5460;SDS011;2753;49.196;8.286;2022-10-31T16:15:14;34.40;;;16.80;;
5460;SDS011;2753;49.196;8.286;2022-10-31T16:17:45;33.43;;;16.80;;
5460;SDS011;2753;49.196;8.286;2022-10-31T16:20:24;35.60;;;14.57;;
5460;SDS011;2753;49.196;8.286;2022-10-31T16:23:13;35.77;;;14.27;;
5460;SDS011;2753;49.196;8.286;2022-10-31T16:25:42;35.77;;;12.97;;
5460;SDS011;2753;49.196;8.286;2022-10-31T16:28:18;32.80;;;14.13;;
5460;SDS011;2753;49.196;8.286;2022-10-31T16:30:53;26.90;;;13.13;;
5460;SDS011;2753;49.196;8.286;2022-10-31T16:35:54;25.33;;;13.33;;
5460;SDS011;2753;49.196;8.286;2022-10-31T16:38:20;24.80;;;14.80;;
5460;SDS011;2753;49.196;8.286;2022-10-31T16:40:46;35.53;;;17.83;;
5460;SDS011;2753;49.196;8.286;2022-10-31T16:43:13;41.83;;;16.27;;
5460;SDS011;2753;49.196;8.286;2022-10-31T16:45:45;39.10;;;18.43;;
5460;SDS011;2753;49.196;8.286;2022-10-31T16:48:14;39.43;;;18.30;;
5460;SDS011;2753;49.196;8.286;2022-10-31T16:50:42;26.00;;;16.57;;
5460;SDS011;2753;49.196;8.286;2022-10-31T16:53:10;28.87;;;16.27;;
5460;SDS011;2753;49.196;8.286;2022-10-31T16:55:54;39.53;;;17.50;;
5460;SDS011;2753;49.196;8.286;2022-10-31T16:58:23;30.40;;;15.00;;
5460;SDS011;2753;49.196;8.286;2022-10-31T17:00:51;27.83;;;14.10;;
5460;SDS011;2753;49.196;8.286;2022-10-31T17:03:17;50.67;;;26.07;;
5460;SDS011;2753;49.196;8.286;2022-10-31T17:05:43;44.83;;;25.13;;
5460;SDS011;2753;49.196;8.286;2022-10-31T17:08:09;48.27;;;22.50;;
5460;SDS011;2753;49.196;8.286;2022-10-31T17:10:35;30.17;;;18.33;;
5460;SDS011;2753;49.196;8.286;2022-10-31T17:13:03;26.47;;;17.80;;
5460;SDS011;2753;49.196;8.286;2022-10-31T17:15:41;83.20;;;45.13;;
5460;SDS011;2753;49.196;8.286;2022-10-31T17:18:15;41.43;;;24.80;;
5460;SDS011;2753;49.196;8.286;2022-10-31T17:20:42;42.63;;;19.30;;
5460;SDS011;2753;49.196;8.286;2022-10-31T17:23:09;37.37;;;24.00;;
5460;SDS011;2753;49.196;8.286;2022-10-31T17:25:40;35.20;;;18.97;;
5460;SDS011;2753;49.196;8.286;2022-10-31T17:28:06;39.87;;;21.67;;
5460;SDS011;2753;49.196;8.286;2022-10-31T17:30:35;38.67;;;20.20;;
5460;SDS011;2753;49.196;8.286;2022-10-31T17:33:02;50.57;;;25.63;;
5460;SDS011;2753;49.196;8.286;2022-10-31T17:35:28;68.43;;;37.73;;
5460;SDS011;2753;49.196;8.286;2022-10-31T17:37:54;50.97;;;28.00;;
5460;SDS011;2753;49.196;8.286;2022-10-31T17:40:20;68.90;;;35.80;;
5460;SDS011;2753;49.196;8.286;2022-10-31T17:42:53;40.60;;;22.20;;
5460;SDS011;2753;49.196;8.286;2022-10-31T17:45:21;43.73;;;18.13;;
5460;SDS011;2753;49.196;8.286;2022-10-31T17:47:49;26.43;;;12.60;;
5460;SDS011;2753;49.196;8.286;2022-10-31T17:50:18;30.27;;;13.07;;
5460;SDS011;2753;49.196;8.286;2022-10-31T17:52:45;30.53;;;14.67;;
5460;SDS011;2753;49.196;8.286;2022-10-31T17:55:12;36.37;;;16.23;;
5460;SDS011;2753;49.196;8.286;2022-10-31T17:57:38;34.60;;;14.10;;
5460;SDS011;2753;49.196;8.286;2022-10-31T18:00:05;32.13;;;13.90;;
5460;SDS011;2753;49.196;8.286;2022-10-31T18:02:33;39.17;;;17.80;;
5460;SDS011;2753;49.196;8.286;2022-10-31T18:05:00;42.83;;;15.67;;
5460;SDS011;2753;49.196;8.286;2022-10-31T18:07:29;35.63;;;18.03;;
5460;SDS011;2753;49.196;8.286;2022-10-31T18:09:55;27.27;;;16.40;;
5460;SDS011;2753;49.196;8.286;2022-10-31T18:12:22;25.23;;;15.47;;
5460;SDS011;2753;49.196;8.286;2022-10-31T18:14:48;37.83;;;17.80;;
5460;SDS011;2753;49.196;8.286;2022-10-31T18:17:15;20.20;;;12.90;;
5460;SDS011;2753;49.196;8.286;2022-10-31T18:19:42;25.50;;;12.20;;
5460;SDS011;2753;49.196;8.286;2022-10-31T18:22:09;22.90;;;14.87;;
5460;SDS011;2753;49.196;8.286;2022-10-31T18:24:35;41.03;;;18.53;;
5460;SDS011;2753;49.196;8.286;2022-10-31T18:27:01;54.10;;;23.80;;
5460;SDS011;2753;49.196;8.286;2022-10-31T18:29:27;36.77;;;20.13;;
5460;SDS011;2753;49.196;8.286;2022-10-31T18:31:53;38.30;;;16.43;;
5460;SDS011;2753;49.196;8.286;2022-10-31T18:34:19;31.83;;;16.20;;
5460;SDS011;2753;49.196;8.286;2022-10-31T18:36:46;36.90;;;16.80;;
5460;SDS011;2753;49.196;8.286;2022-10-31T18:42:33;38.80;;;16.43;;
5460;SDS011;2753;49.196;8.286;2022-10-31T18:44:59;32.80;;;22.70;;
5460;SDS011;2753;49.196;8.286;2022-10-31T18:47:25;29.80;;;16.33;;
5460;SDS011;2753;49.196;8.286;2022-10-31T18:49:51;54.83;;;27.00;;
5460;SDS011;2753;49.196;8.286;2022-10-31T18:52:16;50.93;;;22.90;;
5460;SDS011;2753;49.196;8.286;2022-10-31T18:54:42;47.20;;;22.73;;